createdAt,value
2022-08-08T00:05:44.159Z,21.90
2022-08-08T00:12:56.632Z,21.76
2022-08-08T00:20:00.481Z,21.61
2022-08-08T00:27:08.600Z,21.49
2022-08-08T00:34:52.030Z,21.41
2022-08-08T00:42:18.848Z,21.32
2022-08-08T00:49:37.895Z,21.18
2022-08-08T00:56:52.018Z,21.07
2022-08-08T01:04:29.489Z,20.97
2022-08-08T01:11:53.904Z,20.91
2022-08-08T01:19:42.033Z,20.82
2022-08-08T01:27:33.225Z,20.75
2022-08-08T01:35:17.002Z,20.69
2022-08-08T01:42:36.569Z,20.59
2022-08-08T01:50:09.581Z,20.55
2022-08-08T01:58:04.378Z,20.46
2022-08-08T02:05:03.012Z,20.39
2022-08-08T02:12:25.225Z,20.40
2022-08-08T02:20:07.090Z,20.37
2022-08-08T02:27:07.459Z,20.29
2022-08-08T02:35:11.033Z,20.24
2022-08-08T02:42:38.546Z,20.20
2022-08-08T02:50:17.563Z,20.15
2022-08-08T02:57:24.104Z,20.16
2022-08-08T03:05:12.234Z,20.11
2022-08-08T03:12:36.488Z,20.05
2022-08-08T03:20:03.487Z,19.97
2022-08-08T03:27:16.678Z,19.91
2022-08-08T03:34:19.699Z,19.85
2022-08-08T03:42:12.022Z,19.77
2022-08-08T03:49:56.760Z,19.69
2022-08-08T03:56:32.182Z,19.63
2022-08-08T04:03:57.325Z,19.56
2022-08-08T04:10:59.937Z,19.50
2022-08-08T04:18:02.695Z,19.49
2022-08-08T04:25:06.313Z,19.47
2022-08-08T04:32:14.224Z,19.53
2022-08-08T04:40:03.600Z,19.55
2022-08-08T04:46:55.186Z,19.57
2022-08-08T04:54:39.149Z,19.64
2022-08-08T05:01:22.214Z,19.71
2022-08-08T05:08:26.995Z,19.85
2022-08-08T05:16:54.651Z,19.93
2022-08-08T05:22:54.514Z,20.01
2022-08-08T05:30:03.306Z,20.12
2022-08-08T05:37:19.264Z,20.21
2022-08-08T05:44:31.011Z,20.38
2022-08-08T05:51:48.866Z,20.48
2022-08-08T05:59:05.166Z,20.59
2022-08-08T06:06:18.151Z,20.72
2022-08-08T06:13:26.946Z,20.82
2022-08-08T06:20:38.390Z,20.97
2022-08-08T06:27:49.116Z,21.10
2022-08-08T06:35:11.724Z,21.25
2022-08-08T06:42:19.464Z,21.34
2022-08-08T06:49:55.630Z,21.49
2022-08-08T06:56:47.227Z,21.66
2022-08-08T07:04:38.514Z,21.81
2022-08-08T07:11:24.315Z,22.03
2022-08-08T07:18:46.032Z,22.53
2022-08-08T07:25:54.700Z,22.74
2022-08-08T07:32:59.678Z,22.94
2022-08-08T07:40:03.993Z,23.18
2022-08-08T07:47:08.004Z,23.73
2022-08-08T07:54:28.387Z,24.80
2022-08-08T08:02:32.735Z,25.65
2022-08-08T08:09:00.622Z,26.45
2022-08-08T08:16:05.192Z,26.99
2022-08-08T08:23:10.935Z,27.72
2022-08-08T08:30:14.351Z,27.80
2022-08-08T08:37:20.598Z,28.25
2022-08-08T08:44:25.398Z,28.46
2022-08-08T08:51:35.520Z,29.26
2022-08-08T08:58:43.355Z,30.02
2022-08-08T09:05:56.182Z,29.65
2022-08-08T09:12:58.589Z,30.41
2022-08-08T09:22:00.704Z,30.75
2022-08-08T09:27:55.847Z,30.60
2022-08-08T09:34:50.349Z,31.62
2022-08-08T09:42:20.494Z,31.99
2022-08-08T09:49:42.459Z,31.72
2022-08-08T09:56:48.228Z,31.06
2022-08-08T10:03:56.241Z,31.06
2022-08-08T10:10:59.514Z,30.47
2022-08-08T10:18:10.277Z,29.69
2022-08-08T10:25:16.778Z,29.13
2022-08-08T10:32:39.082Z,29.30
2022-08-08T10:39:54.499Z,29.65
2022-08-08T10:46:56.681Z,29.70
2022-08-08T10:54:00.157Z,30.66
2022-08-08T11:01:10.976Z,31.64
2022-08-08T11:08:38.393Z,31.95
2022-08-08T11:15:58.792Z,32.67
2022-08-08T11:23:05.332Z,33.21
2022-08-08T11:30:24.013Z,33.63
2022-08-08T11:38:35.258Z,33.91
2022-08-08T11:44:48.304Z,34.26
2022-08-08T11:51:52.554Z,34.82
2022-08-08T11:58:56.737Z,34.03
2022-08-08T12:05:58.365Z,32.94
2022-08-08T12:13:09.796Z,33.04
2022-08-08T12:20:14.541Z,33.56
2022-08-08T12:27:18.217Z,34.08
2022-08-08T12:34:20.067Z,34.22
2022-08-08T12:41:35.195Z,34.87
2022-08-08T12:56:24.047Z,35.36
2022-08-08T13:03:27.297Z,35.12
2022-08-08T13:10:36.479Z,34.31
2022-08-08T13:18:08.523Z,34.76
2022-08-08T13:25:21.201Z,35.04
2022-08-08T13:32:25.620Z,35.22
2022-08-08T13:39:27.480Z,35.56
2022-08-08T13:46:29.879Z,35.35
2022-08-08T13:53:36.549Z,35.71
2022-08-08T14:00:39.480Z,36.16
2022-08-08T14:07:45.538Z,36.25
2022-08-08T14:14:53.539Z,34.94
2022-08-08T14:21:55.146Z,34.06
2022-08-08T14:28:59.340Z,34.25
2022-08-08T14:36:09.582Z,34.50
2022-08-08T14:43:31.328Z,34.85
2022-08-08T14:50:38.954Z,34.91
2022-08-08T14:58:02.390Z,34.84
2022-08-08T15:05:08.054Z,34.72
2022-08-08T15:12:12.505Z,34.80
2022-08-08T15:19:16.291Z,35.12
2022-08-08T15:26:17.906Z,35.39
2022-08-08T15:33:35.034Z,35.43
2022-08-08T15:40:37.591Z,35.71
2022-08-08T15:47:39.398Z,35.76
2022-08-08T15:55:01.186Z,35.58
2022-08-08T16:02:02.953Z,35.60
2022-08-08T16:13:02.824Z,35.19
2022-08-08T16:16:26.534Z,35.07
2022-08-08T16:23:32.241Z,34.95
2022-08-08T16:30:36.667Z,34.51
2022-08-08T16:37:46.534Z,33.86
2022-08-08T16:44:55.184Z,33.56
2022-08-08T16:55:05.802Z,33.37
2022-08-08T16:59:18.732Z,33.23
2022-08-08T17:06:36.601Z,33.06
2022-08-08T17:14:00.716Z,32.76
2022-08-08T17:21:03.514Z,32.01
2022-08-08T17:28:05.748Z,31.85
2022-08-08T17:35:53.291Z,31.48
2022-08-08T17:42:30.065Z,31.29
2022-08-08T17:49:42.678Z,30.93
2022-08-08T17:56:45.347Z,30.72
2022-08-08T18:03:48.824Z,30.57
2022-08-08T18:10:51.315Z,30.35
2022-08-08T18:18:08.927Z,30.17
2022-08-08T18:25:15.943Z,30.05
2022-08-08T18:32:17.658Z,29.77
2022-08-08T18:39:27.577Z,29.53
2022-08-08T18:46:55.737Z,29.15
2022-08-08T18:54:02.809Z,28.88
2022-08-08T19:01:05.060Z,28.56
2022-08-08T19:08:29.312Z,28.29
2022-08-08T19:15:33.764Z,28.01
2022-08-08T19:22:37.569Z,27.83
2022-08-08T19:29:42.326Z,27.63
2022-08-08T19:36:47.582Z,27.65
2022-08-08T19:44:03.075Z,27.55
2022-08-08T19:51:06.401Z,27.42
2022-08-08T19:58:08.030Z,27.34
2022-08-08T20:05:11.369Z,27.07
2022-08-08T20:12:14.022Z,26.88
2022-08-08T20:19:15.839Z,26.81
2022-08-08T20:26:18.178Z,26.29
2022-08-08T20:34:27.163Z,26.25
2022-08-08T20:40:52.677Z,26.15
2022-08-08T20:47:57.732Z,25.93
2022-08-08T20:55:16.228Z,25.99
2022-08-08T21:02:25.880Z,25.94
2022-08-08T21:09:31.673Z,25.88
2022-08-08T21:16:49.668Z,25.75
2022-08-08T21:24:02.397Z,25.60
2022-08-08T21:31:22.164Z,25.43
2022-08-08T21:38:27.066Z,25.37
2022-08-08T21:48:01.132Z,25.07
2022-08-08T21:54:33.127Z,24.93
2022-08-08T22:00:14.462Z,24.79
2022-08-08T22:07:16.397Z,24.70
2022-08-08T22:14:18.008Z,24.66
2022-08-08T22:21:21.771Z,24.62
2022-08-08T22:29:14.384Z,24.57
2022-08-08T22:36:05.077Z,24.52
2022-08-08T22:43:07.506Z,24.45
2022-08-08T22:50:26.211Z,24.51
2022-08-08T22:57:29.472Z,24.44
2022-08-08T23:04:58.047Z,24.18
2022-08-08T23:12:28.705Z,24.15
2022-08-08T23:19:27.788Z,24.19
2022-08-08T23:26:32.746Z,24.17
2022-08-08T23:34:17.904Z,24.03
2022-08-08T23:40:59.026Z,23.95
2022-08-08T23:49:06.769Z,23.94
2022-08-08T23:55:22.758Z,23.84
